createdAt,value
2018-09-27T00:00:35.510Z,16.21
2018-09-27T00:01:45.912Z,16.15
2018-09-27T00:02:56.040Z,16.25
2018-09-27T00:04:05.943Z,16.23
2018-09-27T00:05:16.152Z,16.24
2018-09-27T00:06:26.354Z,16.31
2018-09-27T00:07:36.509Z,16.11
2018-09-27T00:08:46.677Z,16.24
2018-09-27T00:09:56.594Z,16.17
2018-09-27T00:11:06.217Z,16.17
2018-09-27T00:12:16.144Z,16.15
2018-09-27T00:13:26.039Z,16.15
2018-09-27T00:14:35.970Z,16.05
2018-09-27T00:15:46.173Z,16.09
2018-09-27T00:16:56.335Z,16.07
2018-09-27T00:18:06.227Z,16.11
2018-09-27T00:19:16.397Z,16.09
2018-09-27T00:20:26.284Z,16.09
2018-09-27T00:21:36.480Z,16.11
2018-09-27T00:22:46.679Z,16.12
2018-09-27T00:23:56.584Z,16.04
2018-09-27T00:25:06.404Z,16.05
2018-09-27T00:26:16.575Z,16.05
2018-09-27T00:27:25.918Z,16.05
2018-09-27T00:28:36.105Z,16.02
2018-09-27T00:29:46.269Z,16.07
2018-09-27T00:30:56.164Z,16.02
2018-09-27T00:32:05.813Z,16.07
2018-09-27T00:33:15.749Z,16.07
2018-09-27T00:34:25.647Z,16.01
2018-09-27T00:35:35.824Z,16.02
2018-09-27T00:36:45.161Z,16.02
2018-09-27T00:37:55.330Z,16.05
2018-09-27T00:39:04.959Z,16.04
2018-09-27T00:40:14.886Z,16.04
2018-09-27T00:41:24.780Z,16.02
2018-09-27T00:42:34.391Z,16.07
2018-09-27T00:43:44.286Z,16.05
2018-09-27T00:44:54.142Z,16.05
2018-09-27T00:46:04.025Z,15.97
2018-09-27T00:47:14.432Z,16
2018-09-27T00:48:24.616Z,15.97
2018-09-27T00:49:34.787Z,16.01
2018-09-27T00:50:44.958Z,16.05
2018-09-27T00:51:54.575Z,15.97
2018-09-27T00:53:04.740Z,16.02
2018-09-27T00:54:14.355Z,15.92
2018-09-27T00:55:24.236Z,16.04
2018-09-27T00:56:33.889Z,16
2018-09-27T00:57:49.827Z,16
2018-09-27T00:59:00.001Z,16
2018-09-27T01:00:09.363Z,16.01
2018-09-27T01:01:19.004Z,16.01
2018-09-27T01:02:28.901Z,15.94
2018-09-27T01:03:38.523Z,15.97
2018-09-27T01:04:48.692Z,15.97
2018-09-27T01:05:58.307Z,15.97
2018-09-27T01:07:08.209Z,15.94
2018-09-27T01:08:18.102Z,15.97
2018-09-27T01:09:28.304Z,15.94
2018-09-27T01:10:37.917Z,15.78
2018-09-27T01:11:48.090Z,15.86
2018-09-27T01:12:58.257Z,15.74
2018-09-27T01:14:07.876Z,15.78
2018-09-27T01:15:17.769Z,15.67
2018-09-27T01:16:27.677Z,15.78
2018-09-27T01:17:37.594Z,15.65
2018-09-27T01:18:47.527Z,15.59
2018-09-27T01:19:57.423Z,15.64
2018-09-27T01:21:07.284Z,15.6
2018-09-27T01:22:17.177Z,15.67
2018-09-27T01:23:27.067Z,15.59
2018-09-27T01:24:36.965Z,15.56
2018-09-27T01:25:47.128Z,15.56
2018-09-27T01:26:57.015Z,15.53
2018-09-27T01:28:06.631Z,15.56
2018-09-27T01:29:16.261Z,15.6
2018-09-27T01:30:26.163Z,15.53
2018-09-27T01:31:35.790Z,15.53
2018-09-27T01:32:45.407Z,15.53
2018-09-27T01:33:55.618Z,15.62
2018-09-27T01:35:05.270Z,15.57
2018-09-27T01:36:15.445Z,15.49
2018-09-27T01:37:25.068Z,15.5
2018-09-27T01:38:35.227Z,15.49
2018-09-27T01:39:44.577Z,15.46
2018-09-27T01:40:54.461Z,15.49
2018-09-27T01:42:03.810Z,15.47
2018-09-27T01:43:13.704Z,15.51
2018-09-27T01:44:23.325Z,15.49
2018-09-27T01:45:32.676Z,15.38
2018-09-27T01:46:42.905Z,15.56
2018-09-27T01:47:53.119Z,15.6
2018-09-27T01:49:03.015Z,15.5
2018-09-27T01:50:12.643Z,15.5
2018-09-27T01:51:22.838Z,15.43
2018-09-27T01:52:32.734Z,15.39
2018-09-27T01:53:42.902Z,15.38
2018-09-27T01:54:52.260Z,15.41
2018-09-27T01:56:02.527Z,15.39
2018-09-27T01:57:12.419Z,15.41
2018-09-27T01:58:22.592Z,15.38
2018-09-27T01:59:32.492Z,15.41
2018-09-27T02:00:42.120Z,15.44
2018-09-27T02:01:52.289Z,15.44
2018-09-27T02:03:02.489Z,15.27
2018-09-27T02:04:12.383Z,15.36
2018-09-27T02:05:22.276Z,15.35
2018-09-27T02:06:32.200Z,15.32
2018-09-27T02:07:42.152Z,15.25
2018-09-27T02:08:52.328Z,15.36
2018-09-27T02:10:02.454Z,15.39
2018-09-27T02:11:12.354Z,15.36
2018-09-27T02:12:22.525Z,15.36
2018-09-27T02:13:32.418Z,15.39
2018-09-27T02:14:42.582Z,15.36
2018-09-27T02:15:52.485Z,15.27
2018-09-27T02:17:02.100Z,15.43
2018-09-27T02:18:11.435Z,15.34
2018-09-27T02:19:21.340Z,15.32
2018-09-27T02:20:30.960Z,15.32
2018-09-27T02:21:40.859Z,15.38
2018-09-27T02:22:50.753Z,15.38
2018-09-27T02:24:00.921Z,15.28
2018-09-27T02:25:11.167Z,15.21
2018-09-27T02:26:20.779Z,15.23
2018-09-27T02:27:30.709Z,15.25
2018-09-27T02:28:40.053Z,15.25
2018-09-27T02:29:49.948Z,15.28
2018-09-27T02:31:00.148Z,15.28
2018-09-27T02:32:10.042Z,15.25
2018-09-27T02:33:19.659Z,15.21
2018-09-27T02:34:29.562Z,15.27
2018-09-27T02:35:39.757Z,15.13
2018-09-27T02:36:49.981Z,15.27
2018-09-27T02:37:59.324Z,15.09
2018-09-27T02:39:09.214Z,15.2
2018-09-27T02:40:19.108Z,15.2
2018-09-27T02:41:28.996Z,15.14
2018-09-27T02:42:39.206Z,15.09
2018-09-27T02:43:49.370Z,15.01
2018-09-27T02:44:59.297Z,15.01
2018-09-27T02:46:09.188Z,15.01
2018-09-27T02:47:18.850Z,14.98
2018-09-27T02:48:29.023Z,14.92
2018-09-27T02:49:38.924Z,14.88
2018-09-27T02:50:48.824Z,14.95
2018-09-27T02:51:58.984Z,14.88
2018-09-27T02:53:09.211Z,14.88
2018-09-27T02:54:18.834Z,14.96
2018-09-27T02:55:28.738Z,14.83
2018-09-27T02:56:38.622Z,14.81
2018-09-27T02:57:48.785Z,14.77
2018-09-27T02:58:58.687Z,14.78
2018-09-27T03:00:09.077Z,14.64
2018-09-27T03:01:19.011Z,14.61
2018-09-27T03:02:28.895Z,14.62
2018-09-27T03:03:38.800Z,14.6
2018-09-27T03:04:48.689Z,14.57
2018-09-27T03:05:58.118Z,14.55
2018-09-27T03:07:08.018Z,14.54
2018-09-27T03:08:17.648Z,14.5
2018-09-27T03:09:27.266Z,14.52
2018-09-27T03:10:36.882Z,14.45
2018-09-27T03:11:46.775Z,14.4
2018-09-27T03:12:56.428Z,14.33
2018-09-27T03:14:06.766Z,14.28
2018-09-27T03:15:16.660Z,14.32
2018-09-27T03:16:26.344Z,14.24
2018-09-27T03:17:35.744Z,14.22
2018-09-27T03:18:45.919Z,14.32
2018-09-27T03:19:55.810Z,14.27
2018-09-27T03:21:05.518Z,14.27
2018-09-27T03:22:15.353Z,14.24
2018-09-27T03:23:25.246Z,14.14
2018-09-27T03:24:35.139Z,14.03
2018-09-27T03:25:45.042Z,14.14
2018-09-27T03:26:54.658Z,14.14
2018-09-27T03:28:04.040Z,14.14
2018-09-27T03:29:13.985Z,14.17
2018-09-27T03:30:24.222Z,14.02
2018-09-27T03:31:34.129Z,13.99
2018-09-27T03:32:44.075Z,14
2018-09-27T03:33:54.271Z,14.04
2018-09-27T03:35:04.644Z,13.97
2018-09-27T03:36:14.567Z,14.07
2018-09-27T03:37:24.466Z,13.97
2018-09-27T03:38:34.653Z,13.92
2018-09-27T03:39:44.693Z,13.87
2018-09-27T03:40:54.878Z,13.82
2018-09-27T03:42:04.799Z,13.99
2018-09-27T03:43:14.426Z,13.97
2018-09-27T03:44:24.259Z,13.82
2018-09-27T03:45:33.891Z,13.85
2018-09-27T03:46:44.113Z,13.78
2018-09-27T03:47:54.014Z,13.85
2018-09-27T03:49:03.896Z,13.84
2018-09-27T03:50:13.815Z,13.78
2018-09-27T03:51:23.435Z,13.81
2018-09-27T03:52:33.571Z,13.77
2018-09-27T03:53:43.192Z,13.71
2018-09-27T03:54:53.089Z,13.7
2018-09-27T03:56:03.003Z,13.75
2018-09-27T03:57:12.907Z,13.63
2018-09-27T03:58:22.801Z,13.55
2018-09-27T03:59:32.974Z,13.48
2018-09-27T04:00:42.873Z,13.6
2018-09-27T04:01:53.036Z,13.41
2018-09-27T04:03:03.254Z,13.52
2018-09-27T04:04:12.929Z,13.46
2018-09-27T04:05:22.276Z,13.52
2018-09-27T04:06:32.215Z,13.63
2018-09-27T04:07:41.890Z,13.63
2018-09-27T04:08:51.784Z,13.41
2018-09-27T04:10:01.998Z,13.46
2018-09-27T04:11:11.900Z,13.45
2018-09-27T04:12:21.791Z,13.45
2018-09-27T04:13:32.009Z,13.45
2018-09-27T04:14:41.356Z,13.51
2018-09-27T04:15:51.823Z,13.33
2018-09-27T04:17:01.228Z,13.38
2018-09-27T04:18:10.859Z,13.33
2018-09-27T04:19:21.068Z,13.36
2018-09-27T04:20:31.237Z,13.29
2018-09-27T04:21:41.202Z,13.3
2018-09-27T04:22:51.145Z,13.36
2018-09-27T04:24:01.178Z,13.38
2018-09-27T04:25:11.215Z,13.28
2018-09-27T04:26:21.098Z,13.22
2018-09-27T04:27:30.995Z,13.26
2018-09-27T04:28:40.608Z,13.33
2018-09-27T04:29:50.771Z,13.28
2018-09-27T04:31:00.388Z,13.25
2018-09-27T04:32:10.259Z,13.29
2018-09-27T04:33:19.648Z,13.19
2018-09-27T04:34:29.815Z,13.15
2018-09-27T04:35:39.442Z,13.2
2018-09-27T04:36:49.056Z,13.25
2018-09-27T04:37:58.674Z,13.12
2018-09-27T04:39:08.347Z,13.12
2018-09-27T04:40:18.248Z,13.04
2018-09-27T04:41:28.423Z,13.15
2018-09-27T04:42:38.318Z,13.05
2018-09-27T04:43:48.484Z,13.07
2018-09-27T04:44:58.097Z,13
2018-09-27T04:46:07.716Z,13.08
2018-09-27T04:47:17.636Z,13.04
2018-09-27T04:48:27.259Z,12.96
2018-09-27T04:49:37.145Z,12.96
2018-09-27T04:50:46.497Z,12.96
2018-09-27T04:51:56.130Z,12.93
2018-09-27T04:53:06.174Z,12.93
2018-09-27T04:54:15.808Z,12.95
2018-09-27T04:55:25.768Z,13.01
2018-09-27T04:56:35.943Z,13.07
2018-09-27T04:57:45.835Z,13
2018-09-27T04:58:55.730Z,13.03
2018-09-27T05:00:06.111Z,12.92
2018-09-27T05:01:15.849Z,12.95
2018-09-27T05:02:24.955Z,12.93
2018-09-27T05:03:34.298Z,12.95
2018-09-27T05:04:44.308Z,12.85
2018-09-27T05:05:53.932Z,12.9
2018-09-27T05:07:03.552Z,12.85
2018-09-27T05:08:13.728Z,12.9
2018-09-27T05:09:23.374Z,12.89
2018-09-27T05:10:33.338Z,12.82
2018-09-27T05:11:42.967Z,12.89
2018-09-27T05:12:52.590Z,12.87
2018-09-27T05:14:02.482Z,12.82
2018-09-27T05:15:12.116Z,12.79
2018-09-27T05:16:22.321Z,12.87
2018-09-27T05:17:31.946Z,12.85
2018-09-27T05:18:41.879Z,12.83
2018-09-27T05:19:51.505Z,12.85
2018-09-27T05:21:01.401Z,12.82
2018-09-27T05:22:10.748Z,12.78
2018-09-27T05:23:20.910Z,12.85
2018-09-27T05:24:30.804Z,12.82
2018-09-27T05:25:40.145Z,12.82
2018-09-27T05:26:49.758Z,12.83
2018-09-27T05:27:59.856Z,12.74
2018-09-27T05:29:09.755Z,12.79
2018-09-27T05:30:19.651Z,12.72
2018-09-27T05:31:29.257Z,12.74
2018-09-27T05:32:39.146Z,12.79
2018-09-27T05:33:49.375Z,12.75
2018-09-27T05:34:59.320Z,12.7
2018-09-27T05:36:08.943Z,12.79
2018-09-27T05:37:18.863Z,12.78
2018-09-27T05:38:28.484Z,12.77
2018-09-27T05:39:38.891Z,12.78
2018-09-27T05:40:49.534Z,12.75
2018-09-27T05:41:59.149Z,12.68
2018-09-27T05:43:09.036Z,12.79
2018-09-27T05:44:19.207Z,12.67
2018-09-27T05:45:29.212Z,12.67
2018-09-27T05:46:38.987Z,12.77
2018-09-27T05:47:48.328Z,12.65
2018-09-27T05:48:57.942Z,12.7
2018-09-27T05:50:07.857Z,12.64
2018-09-27T05:51:17.746Z,12.7
2018-09-27T05:52:27.644Z,12.74
2018-09-27T05:53:37.543Z,12.7
2018-09-27T05:54:47.429Z,12.68
2018-09-27T05:55:57.641Z,12.74
2018-09-27T05:57:07.552Z,12.7
2018-09-27T05:58:17.176Z,12.67
2018-09-27T05:59:27.348Z,12.68
2018-09-27T06:00:37.239Z,12.64
2018-09-27T06:01:46.892Z,12.59
2018-09-27T06:02:57.074Z,12.67
2018-09-27T06:04:06.977Z,12.5
2018-09-27T06:05:16.055Z,12.64
2018-09-27T06:06:25.678Z,12.67
2018-09-27T06:07:35.292Z,12.54
2018-09-27T06:08:45.452Z,12.68
2018-09-27T06:09:55.353Z,12.68
2018-09-27T06:11:04.983Z,12.64
2018-09-27T06:12:14.360Z,12.7
2018-09-27T06:13:23.983Z,12.72
2018-09-27T06:14:34.150Z,12.74
2018-09-27T06:15:44.001Z,12.78
2018-09-27T06:16:53.981Z,12.75
2018-09-27T06:18:03.696Z,12.77
2018-09-27T06:19:13.386Z,12.75
2018-09-27T06:20:23.445Z,12.82
2018-09-27T06:21:33.183Z,12.78
2018-09-27T06:22:43.668Z,12.83
2018-09-27T06:23:53.289Z,12.93
2018-09-27T06:25:02.640Z,12.86
2018-09-27T06:26:12.896Z,12.96
2018-09-27T06:27:23.174Z,12.93
2018-09-27T06:28:33.488Z,12.92
2018-09-27T06:29:43.418Z,12.93
2018-09-27T06:30:53.041Z,13.05
2018-09-27T06:32:02.385Z,12.96
2018-09-27T06:33:11.726Z,13
2018-09-27T06:34:21.624Z,13.04
2018-09-27T06:35:31.553Z,13.01
2018-09-27T06:36:41.446Z,13.03
2018-09-27T06:37:50.794Z,13.04
2018-09-27T06:39:00.929Z,13.04
2018-09-27T06:40:10.549Z,13.2
2018-09-27T06:41:19.935Z,13.17
2018-09-27T06:42:30.457Z,13.26
2018-09-27T06:43:40.404Z,13.29
2018-09-27T06:44:50.093Z,13.26
2018-09-27T06:45:59.759Z,13.28
2018-09-27T06:47:09.867Z,13.28
2018-09-27T06:48:19.935Z,13.26
2018-09-27T06:49:30.051Z,13.33
2018-09-27T06:50:39.821Z,13.25
2018-09-27T06:51:50.036Z,13.38
2018-09-27T06:53:00.291Z,13.32
2018-09-27T06:54:10.153Z,13.38
2018-09-27T06:55:20.634Z,13.42
2018-09-27T06:56:32.092Z,13.51
2018-09-27T06:57:41.527Z,13.46
2018-09-27T06:58:51.146Z,13.54
2018-09-27T07:00:01.037Z,13.51
2018-09-27T07:01:10.938Z,13.48
2018-09-27T07:02:21.110Z,13.51
2018-09-27T07:03:31.100Z,13.52
2018-09-27T07:04:40.723Z,13.51
2018-09-27T07:05:50.667Z,13.46
2018-09-27T07:07:00.011Z,13.48
2018-09-27T07:08:09.643Z,13.55
2018-09-27T07:09:18.996Z,13.6
2018-09-27T07:10:28.891Z,13.6
2018-09-27T07:11:39.118Z,13.66
2018-09-27T07:12:49.649Z,13.63
2018-09-27T07:13:59.497Z,13.75
2018-09-27T07:15:09.149Z,13.73
2018-09-27T07:16:18.501Z,13.77
2018-09-27T07:17:28.377Z,13.75
2018-09-27T07:18:38.220Z,13.78
2018-09-27T07:19:48.408Z,13.78
2018-09-27T07:20:58.303Z,13.84
2018-09-27T07:22:07.936Z,13.89
2018-09-27T07:23:17.580Z,13.88
2018-09-27T07:24:27.208Z,13.95
2018-09-27T07:25:37.101Z,13.99
2018-09-27T07:26:47.845Z,13.97
2018-09-27T07:27:58.468Z,14.03
2018-09-27T07:29:08.633Z,14.09
2018-09-27T07:30:18.588Z,14.09
2018-09-27T07:31:28.205Z,14.14
2018-09-27T07:32:38.706Z,14.17
2018-09-27T07:33:49.310Z,14.18
2018-09-27T07:34:59.211Z,14.14
2018-09-27T07:36:08.013Z,14.25
2018-09-27T07:37:17.354Z,14.27
2018-09-27T07:38:27.837Z,14.29
2018-09-27T07:39:37.882Z,14.32
2018-09-27T07:40:48.084Z,14.32
2018-09-27T07:41:57.738Z,14.4
2018-09-27T07:43:07.653Z,14.29
2018-09-27T07:44:17.556Z,14.35
2018-09-27T07:45:27.178Z,14.32
2018-09-27T07:46:36.798Z,14.46
2018-09-27T07:47:46.428Z,14.51
2018-09-27T07:48:56.592Z,14.52
2018-09-27T07:50:05.945Z,14.54
2018-09-27T07:51:15.031Z,14.55
2018-09-27T07:52:24.118Z,14.6
2018-09-27T07:53:33.522Z,14.61
2018-09-27T07:54:44.147Z,14.61
2018-09-27T07:55:54.531Z,14.69
2018-09-27T07:57:04.719Z,14.69
2018-09-27T07:58:14.896Z,14.72
2018-09-27T07:59:24.793Z,14.73
2018-09-27T08:00:34.411Z,14.72
2018-09-27T08:01:44.026Z,14.8
2018-09-27T08:02:54.838Z,14.94
2018-09-27T08:04:05.300Z,14.94
2018-09-27T08:05:15.292Z,14.98
2018-09-27T08:06:25.188Z,15.01
2018-09-27T08:07:35.090Z,15.13
2018-09-27T08:08:45.479Z,15.1
2018-09-27T08:09:55.516Z,15.13
2018-09-27T08:11:05.091Z,15.2
2018-09-27T08:12:14.942Z,15.21
2018-09-27T08:13:25.312Z,15.25
2018-09-27T08:14:35.247Z,15.27
2018-09-27T08:15:44.877Z,15.25
2018-09-27T08:16:55.289Z,15.25
2018-09-27T08:18:05.405Z,15.31
2018-09-27T08:19:15.029Z,15.36
2018-09-27T08:20:24.764Z,15.39
2018-09-27T08:21:34.992Z,15.35
2018-09-27T08:22:44.890Z,15.5
2018-09-27T08:23:55.366Z,15.56
2018-09-27T08:25:05.731Z,15.65
2018-09-27T08:26:15.630Z,15.62
2018-09-27T08:27:25.256Z,15.65
2018-09-27T08:28:35.149Z,15.71
2018-09-27T08:29:44.770Z,15.67
2018-09-27T08:30:54.867Z,15.76
2018-09-27T08:32:05.182Z,15.84
2018-09-27T08:33:15.070Z,15.83
2018-09-27T08:34:24.707Z,15.89
2018-09-27T08:35:34.911Z,15.83
2018-09-27T08:36:45.091Z,15.97
2018-09-27T08:37:54.986Z,16.01
2018-09-27T08:39:04.335Z,16.01
2018-09-27T08:40:14.319Z,16.01
2018-09-27T08:41:24.488Z,15.97
2018-09-27T08:42:34.111Z,16.01
2018-09-27T08:43:44.007Z,16.02
2018-09-27T08:44:54.476Z,16.09
2018-09-27T08:46:04.977Z,16.11
2018-09-27T08:47:14.913Z,16.23
2018-09-27T08:48:24.538Z,16.12
2018-09-27T08:49:34.204Z,16.31
2018-09-27T08:50:43.820Z,16.39
2018-09-27T08:51:54.004Z,16.43
2018-09-27T08:53:03.902Z,16.46
2018-09-27T08:54:13.251Z,16.46
2018-09-27T08:55:22.379Z,16.6
2018-09-27T08:56:32.635Z,16.6
2018-09-27T08:57:43.110Z,16.61
2018-09-27T08:58:53.310Z,16.58
2018-09-27T09:00:03.202Z,16.68
2018-09-27T09:01:13.425Z,16.61
2018-09-27T09:02:23.328Z,16.78
2018-09-27T09:03:33.787Z,16.73
2018-09-27T09:04:44.190Z,16.75
2018-09-27T09:05:53.850Z,16.78
2018-09-27T09:07:04.034Z,16.81
2018-09-27T09:08:13.113Z,16.79
2018-09-27T09:09:23.051Z,16.86
2018-09-27T09:10:33.106Z,16.86
2018-09-27T09:11:42.456Z,16.86
2018-09-27T09:12:52.102Z,16.86
2018-09-27T09:14:01.976Z,16.91
2018-09-27T09:15:11.597Z,16.91
2018-09-27T09:16:21.216Z,16.98
2018-09-27T09:17:31.388Z,16.98
2018-09-27T09:18:41.004Z,17
2018-09-27T09:19:50.629Z,17
2018-09-27T09:21:00.563Z,17.15
2018-09-27T09:22:10.472Z,17.11
2018-09-27T09:23:20.611Z,17.08
2018-09-27T09:24:30.660Z,17.19
2018-09-27T09:25:41.001Z,17.16
2018-09-27T09:26:51.409Z,17.25
2018-09-27T09:28:01.308Z,17.28
2018-09-27T09:29:11.221Z,17.28
2018-09-27T09:30:21.136Z,17.26
2018-09-27T09:31:30.777Z,17.31
2018-09-27T09:32:40.406Z,17.36
2018-09-27T09:33:50.195Z,17.41
2018-09-27T09:35:00.600Z,17.49
2018-09-27T09:36:10.441Z,17.56
2018-09-27T09:37:20.336Z,17.63
2018-09-27T09:38:30.487Z,17.7
2018-09-27T09:39:40.388Z,17.81
2018-09-27T09:40:50.552Z,17.75
2018-09-27T09:42:00.728Z,17.87
2018-09-27T09:43:10.381Z,17.9
2018-09-27T09:44:20.281Z,17.92
2018-09-27T09:45:30.689Z,17.99
2018-09-27T09:46:40.346Z,18.03
2018-09-27T09:47:49.756Z,18.1
2018-09-27T09:48:59.379Z,18.2
2018-09-27T09:50:09.330Z,18.05
2018-09-27T09:51:19.370Z,18.12
2018-09-27T09:52:29.272Z,18.25
2018-09-27T09:53:39.178Z,18.25
2018-09-27T09:54:49.345Z,18.29
2018-09-27T09:55:59.524Z,18.29
2018-09-27T09:57:09.441Z,18.36
2018-09-27T09:58:19.070Z,18.41
2018-09-27T09:59:28.415Z,18.48
2018-09-27T10:00:38.589Z,18.42
2018-09-27T10:01:48.518Z,18.55
2018-09-27T10:02:58.149Z,18.6
2018-09-27T10:04:07.773Z,18.54
2018-09-27T10:05:17.394Z,18.57
2018-09-27T10:06:27.568Z,18.58
2018-09-27T10:07:37.544Z,18.7
2018-09-27T10:08:46.973Z,18.66
2018-09-27T10:09:56.609Z,18.66
2018-09-27T10:11:06.232Z,18.65
2018-09-27T10:12:16.130Z,18.62
2018-09-27T10:13:26.359Z,18.78
2018-09-27T10:14:36.248Z,18.78
2018-09-27T10:15:45.908Z,18.87
2018-09-27T10:16:56.074Z,18.92
2018-09-27T10:18:05.700Z,18.94
2018-09-27T10:19:15.870Z,18.92
2018-09-27T10:20:24.940Z,19
2018-09-27T10:21:34.663Z,19.04
2018-09-27T10:22:44.771Z,18.9
2018-09-27T10:23:54.132Z,19.1
2018-09-27T10:25:03.493Z,19.1
2018-09-27T10:26:13.704Z,19.21
2018-09-27T10:27:23.695Z,19.26
2018-09-27T10:28:33.784Z,19.39
2018-09-27T10:29:43.686Z,19.46
2018-09-27T10:30:53.338Z,19.4
2018-09-27T10:32:03.513Z,19.54
2018-09-27T10:33:13.132Z,19.54
2018-09-27T10:34:23.598Z,19.58
2018-09-27T10:35:33.899Z,19.61
2018-09-27T10:36:43.247Z,19.69
2018-09-27T10:37:53.374Z,19.73
2018-09-27T10:39:03.003Z,19.69
2018-09-27T10:40:13.144Z,19.66
2018-09-27T10:41:22.773Z,19.73
2018-09-27T10:42:32.442Z,19.78
2018-09-27T10:43:42.060Z,19.81
2018-09-27T10:44:51.990Z,19.78
2018-09-27T10:46:02.271Z,19.74
2018-09-27T10:47:11.890Z,19.69
2018-09-27T10:48:21.785Z,19.68
2018-09-27T10:49:31.678Z,19.58
2018-09-27T10:50:41.298Z,19.56
2018-09-27T10:51:51.217Z,19.68
2018-09-27T10:53:00.847Z,19.81
2018-09-27T10:54:10.781Z,19.91
2018-09-27T10:55:20.954Z,19.94
2018-09-27T10:56:30.855Z,19.92
2018-09-27T10:57:40.790Z,20.02
2018-09-27T10:58:50.509Z,19.84
2018-09-27T11:00:00.187Z,20.05
2018-09-27T11:01:09.832Z,20.06
2018-09-27T11:02:20.008Z,20.13
2018-09-27T11:03:29.900Z,20.08
2018-09-27T11:04:39.534Z,20.14
2018-09-27T11:05:48.949Z,20.1
2018-09-27T11:06:59.124Z,20.08
2018-09-27T11:08:09.307Z,20.18
2018-09-27T11:09:18.934Z,20.17
2018-09-27T11:10:29.094Z,20.02
2018-09-27T11:11:39.159Z,20.02
2018-09-27T11:12:49.371Z,20.06
2018-09-27T11:13:58.994Z,20.17
2018-09-27T11:15:08.618Z,20.33
2018-09-27T11:16:18.247Z,20.23
2018-09-27T11:17:28.145Z,20.08
2018-09-27T11:18:38.009Z,20.18
2018-09-27T11:19:47.362Z,20.18
2018-09-27T11:20:56.986Z,20.32
2018-09-27T11:22:07.139Z,20.23
2018-09-27T11:23:17.289Z,20.32
2018-09-27T11:24:27.824Z,20.35
2018-09-27T11:25:37.721Z,20.39
2018-09-27T11:26:47.351Z,20.43
2018-09-27T11:27:57.288Z,20.35
2018-09-27T11:29:07.296Z,20.39
2018-09-27T11:30:17.429Z,20.54
2018-09-27T11:31:27.334Z,20.5
2018-09-27T11:32:37.505Z,20.55
2018-09-27T11:33:47.440Z,20.52
2018-09-27T11:34:57.617Z,20.66
2018-09-27T11:36:07.762Z,20.73
2018-09-27T11:37:17.761Z,20.57
2018-09-27T11:38:27.713Z,20.5
2018-09-27T11:39:37.768Z,20.55
2018-09-27T11:40:47.863Z,20.72
2018-09-27T11:41:57.215Z,20.73
2018-09-27T11:43:07.123Z,20.76
2018-09-27T11:44:17.418Z,20.72
2018-09-27T11:45:27.044Z,20.69
2018-09-27T11:46:37.187Z,20.8
2018-09-27T11:47:46.808Z,20.74
2018-09-27T11:48:57.213Z,20.89
2018-09-27T11:50:08.434Z,20.7
2018-09-27T11:51:18.603Z,20.84
2018-09-27T11:52:28.771Z,20.97
2018-09-27T11:53:38.696Z,20.91
2018-09-27T11:54:48.894Z,20.98
2018-09-27T11:55:58.606Z,21.12
2018-09-27T11:57:08.615Z,21.12
2018-09-27T11:58:18.525Z,21.17
2018-09-27T11:59:28.436Z,21.29
2018-09-27T12:00:38.277Z,21.27
2018-09-27T12:01:48.620Z,21.42
2018-09-27T12:02:58.809Z,21.67
2018-09-27T12:04:08.730Z,21.74
2018-09-27T12:05:18.635Z,21.79
2018-09-27T12:06:28.905Z,21.84
2018-09-27T12:07:39.751Z,21.88
2018-09-27T12:08:50.000Z,21.71
2018-09-27T12:09:59.909Z,21.77
2018-09-27T12:11:09.543Z,21.79
2018-09-27T12:12:19.173Z,21.74
2018-09-27T12:13:29.308Z,21.8
2018-09-27T12:14:39.832Z,21.53
2018-09-27T12:15:50.401Z,21.44
2018-09-27T12:17:00.575Z,21.49
2018-09-27T12:18:10.127Z,21.58
2018-09-27T12:19:20.039Z,21.61
2018-09-27T12:20:29.949Z,21.75
2018-09-27T12:21:39.857Z,21.9
2018-09-27T12:22:49.215Z,21.8
2018-09-27T12:23:58.957Z,21.88
2018-09-27T12:25:08.866Z,21.79
2018-09-27T12:26:18.528Z,21.92
2018-09-27T12:27:28.154Z,21.94
2018-09-27T12:28:38.509Z,21.99
2018-09-27T12:29:48.970Z,22.03
2018-09-27T12:30:59.017Z,21.92
2018-09-27T12:32:09.229Z,21.94
2018-09-27T12:33:18.896Z,21.98
2018-09-27T12:34:28.796Z,21.91
2018-09-27T12:35:38.697Z,21.9
2018-09-27T12:36:48.732Z,21.96
2018-09-27T12:37:58.354Z,21.86
2018-09-27T12:39:08.598Z,21.9
2018-09-27T12:40:18.783Z,22
2018-09-27T12:41:28.742Z,21.91
2018-09-27T12:42:38.873Z,21.96
2018-09-27T12:43:49.229Z,21.91
2018-09-27T12:44:59.180Z,21.91
2018-09-27T12:46:10.287Z,22.02
2018-09-27T12:47:20.382Z,21.91
2018-09-27T12:48:30.979Z,21.84
2018-09-27T12:49:41.755Z,21.88
2018-09-27T12:50:52.059Z,21.84
2018-09-27T12:52:03.355Z,21.92
2018-09-27T12:53:13.129Z,21.96
2018-09-27T12:54:23.128Z,21.98
2018-09-27T12:55:33.303Z,22.06
2018-09-27T12:56:43.476Z,21.98
2018-09-27T12:57:53.396Z,22.12
2018-09-27T12:59:03.342Z,22.24
2018-09-27T13:00:12.968Z,22.2
2018-09-27T13:01:22.319Z,22.28
2018-09-27T13:02:31.648Z,22.37
2018-09-27T13:03:41.701Z,22.21
2018-09-27T13:04:51.331Z,22.21
2018-09-27T13:06:01.234Z,22.1
2018-09-27T13:07:11.701Z,22.12
2018-09-27T13:08:21.613Z,22.18
2018-09-27T13:09:31.839Z,22.2
2018-09-27T13:10:42.471Z,22.21
2018-09-27T13:11:52.429Z,22.12
2018-09-27T13:13:02.700Z,22.15
2018-09-27T13:14:12.068Z,22.21
2018-09-27T13:15:21.427Z,22.3
2018-09-27T13:16:31.337Z,22.31
2018-09-27T13:17:42.163Z,22.27
2018-09-27T13:18:52.379Z,22.33
2018-09-27T13:20:06.072Z,22.3
2018-09-27T13:21:15.923Z,22.36
2018-09-27T13:22:25.311Z,22.4
2018-09-27T13:23:35.222Z,22.45
2018-09-27T13:24:45.474Z,22.46
2018-09-27T13:25:55.533Z,22.43
2018-09-27T13:27:05.377Z,22.47
2018-09-27T13:28:15.601Z,22.62
2018-09-27T13:29:25.234Z,22.61
2018-09-27T13:30:35.135Z,22.62
2018-09-27T13:31:44.807Z,22.64
2018-09-27T13:32:54.461Z,22.76
2018-09-27T13:34:05.174Z,22.68
2018-09-27T13:35:15.203Z,22.75
2018-09-27T13:36:25.380Z,22.77
2018-09-27T13:37:35.033Z,22.77
2018-09-27T13:38:45.212Z,22.82
2018-09-27T13:39:55.367Z,22.79
2018-09-27T13:41:05.138Z,22.8
2018-09-27T13:42:14.768Z,22.79
2018-09-27T13:43:24.968Z,22.62
2018-09-27T13:44:34.873Z,22.68
2018-09-27T13:45:45.053Z,22.6
2018-09-27T13:46:54.680Z,22.46
2018-09-27T13:48:04.868Z,22.55
2018-09-27T13:49:15.157Z,22.51
2018-09-27T13:50:25.097Z,22.55
2018-09-27T13:51:35.002Z,22.45
2018-09-27T13:52:45.168Z,22.54
2018-09-27T13:53:54.787Z,22.57
2018-09-27T13:55:04.565Z,22.65
2018-09-27T13:56:14.418Z,22.73
2018-09-27T13:57:23.561Z,22.65
2018-09-27T13:58:33.609Z,22.8
2018-09-27T13:59:43.831Z,22.88
2018-09-27T14:00:53.289Z,22.75
2018-09-27T14:02:03.001Z,22.91
2018-09-27T14:03:13.181Z,22.9
2018-09-27T14:04:23.073Z,22.82
2018-09-27T14:05:32.883Z,22.86
2018-09-27T14:06:42.881Z,22.92
2018-09-27T14:07:53.091Z,22.88
2018-09-27T14:09:03.266Z,22.9
2018-09-27T14:10:13.221Z,22.97
2018-09-27T14:11:23.393Z,23
2018-09-27T14:12:33.295Z,23
2018-09-27T14:13:43.472Z,23.05
2018-09-27T14:14:53.374Z,22.94
2018-09-27T14:16:02.727Z,22.98
2018-09-27T14:17:12.907Z,23.07
2018-09-27T14:18:22.528Z,23.2
2018-09-27T14:19:32.166Z,23.22
2018-09-27T14:20:42.347Z,23.22
2018-09-27T14:21:51.977Z,23.22
2018-09-27T14:23:01.885Z,23.22
2018-09-27T14:24:11.794Z,23.19
2018-09-27T14:25:21.994Z,23.19
2018-09-27T14:26:31.619Z,23.12
2018-09-27T14:27:41.261Z,23.09
2018-09-27T14:28:50.628Z,23.07
2018-09-27T14:30:00.763Z,23
2018-09-27T14:31:10.869Z,22.98
2018-09-27T14:32:21.092Z,22.9
2018-09-27T14:33:31.055Z,22.95
2018-09-27T14:34:40.679Z,22.85
2018-09-27T14:35:49.908Z,22.88
2018-09-27T14:36:59.259Z,22.88
2018-09-27T14:38:09.176Z,22.79
2018-09-27T14:39:19.429Z,22.77
2018-09-27T14:40:29.340Z,22.76
2018-09-27T14:41:39.203Z,22.76
2018-09-27T14:42:49.505Z,22.75
2018-09-27T14:43:59.459Z,22.67
2018-09-27T14:45:09.676Z,22.58
2018-09-27T14:46:19.307Z,22.65
2018-09-27T14:47:29.304Z,22.61
2018-09-27T14:48:39.476Z,22.58
2018-09-27T14:49:49.414Z,22.58
2018-09-27T14:50:59.040Z,22.6
2018-09-27T14:52:09.237Z,22.62
2018-09-27T14:53:19.141Z,22.7
2018-09-27T14:54:29.322Z,22.64
2018-09-27T14:55:39.507Z,22.65
2018-09-27T14:56:49.141Z,22.77
2018-09-27T14:57:58.521Z,22.79
2018-09-27T14:59:08.422Z,22.68
2018-09-27T15:00:18.050Z,22.68
2018-09-27T15:01:28.514Z,22.65
2018-09-27T15:02:38.352Z,22.76
2018-09-27T15:03:48.280Z,22.67
2018-09-27T15:04:58.431Z,22.64